Time;durP1;ratioP1;P1;durP2;ratioP2;P2;SDS_P1;SDS_P2;PMS_P1;PMS_P2;Temp;Humidity;BMP_temperature;BMP_pressure;BME280_temperature;BME280_humidity;BME280_pressure;Samples;Min_cycle;Max_cycle;Signal;HPM_P1;HPM_P2
2024/02/01 00:01:57;;;;;;;23.47;13.07;;;;;;;;;;4807643;29;20225;-84
2024/02/01 00:05:01;;;;;;;20.10;12.57;;;;;;;;;;4808060;29;20548;-84
2024/02/01 00:08:06;;;;;;;20.60;13.40;;;;;;;;;;4775865;29;20237;-84
2024/02/01 00:11:10;;;;;;;20.00;12.37;;;;;;;;;;4796877;29;20184;-84
2024/02/01 00:14:14;;;;;;;17.40;11.90;;;;;;;;;;4808158;29;20197;-84
2024/02/01 00:17:18;;;;;;;17.20;12.77;;;;;;;;;;4796789;29;20229;-84
2024/02/01 00:20:23;;;;;;;21.33;13.33;;;;;;;;;;4808005;29;20540;-84
2024/02/01 00:23:27;;;;;;;17.70;12.20;;;;;;;;;;4796641;29;20189;-84
2024/02/01 00:26:31;;;;;;;22.27;13.13;;;;;;;;;;4807854;29;20649;-84
2024/02/01 00:29:35;;;;;;;19.53;12.13;;;;;;;;;;4796910;29;20193;-84
2024/02/01 00:32:40;;;;;;;18.60;13.33;;;;;;;;;;4796585;29;20189;-84
2024/02/01 00:35:45;;;;;;;19.10;13.40;;;;;;;;;;4807911;29;20627;-84
2024/02/01 00:38:49;;;;;;;20.40;13.20;;;;;;;;;;4796169;29;20224;-82
2024/02/01 00:41:54;;;;;;;21.23;13.63;;;;;;;;;;4807854;29;20225;-82
2024/02/01 00:44:58;;;;;;;23.07;13.27;;;;;;;;;;4807230;29;20676;-82
2024/02/01 00:48:04;;;;;;;17.97;13.47;;;;;;;;;;4796547;29;20236;-82
2024/02/01 00:51:08;;;;;;;19.60;14.03;;;;;;;;;;4807720;29;20189;-82
2024/02/01 00:54:12;;;;;;;19.60;13.90;;;;;;;;;;4810073;29;20201;-82
2024/02/01 00:57:16;;;;;;;22.97;14.10;;;;;;;;;;4810863;29;20224;-82
2024/02/01 01:00:20;;;;;;;19.47;13.73;;;;;;;;;;4799894;29;20197;-82
2024/02/01 01:03:24;;;;;;;17.93;12.97;;;;;;;;;;4811423;29;20189;-82
2024/02/01 01:06:28;;;;;;;21.53;13.80;;;;;;;;;;4800224;29;20197;-82
2024/02/01 01:09:32;;;;;;;20.97;13.80;;;;;;;;;;4810839;29;20197;-82
2024/02/01 01:12:37;;;;;;;21.77;13.03;;;;;;;;;;4811474;29;20185;-82
2024/02/01 01:15:41;;;;;;;19.53;12.67;;;;;;;;;;4799799;29;20193;-82
2024/02/01 01:18:45;;;;;;;22.67;13.63;;;;;;;;;;4799183;29;20224;-83
2024/02/01 01:21:49;;;;;;;23.47;14.37;;;;;;;;;;4799756;29;20224;-82
2024/02/01 01:24:53;;;;;;;20.73;13.67;;;;;;;;;;4799182;29;20193;-82
2024/02/01 01:27:57;;;;;;;20.57;13.53;;;;;;;;;;4810817;29;20232;-82
2024/02/01 01:31:02;;;;;;;23.27;13.20;;;;;;;;;;4799563;29;20192;-82
2024/02/01 01:34:06;;;;;;;23.23;13.33;;;;;;;;;;4799498;29;20189;-82
2024/02/01 01:37:28;;;;;;;21.17;13.37;;;;;;;;;;4802203;29;20233;-82
2024/02/01 01:40:32;;;;;;;20.67;13.27;;;;;;;;;;4809850;29;20216;-82
2024/02/01 01:43:36;;;;;;;17.57;12.50;;;;;;;;;;4810759;29;20186;-82
2024/02/01 01:46:41;;;;;;;16.60;13.23;;;;;;;;;;4810138;29;20197;-82
2024/02/01 01:49:45;;;;;;;21.70;13.43;;;;;;;;;;4810082;29;20189;-83
2024/02/01 01:52:50;;;;;;;21.77;12.87;;;;;;;;;;4798740;29;20188;-82
2024/02/01 01:55:56;;;;;;;18.50;12.47;;;;;;;;;;4810404;29;20193;-82
2024/02/01 01:59:02;;;;;;;20.43;13.00;;;;;;;;;;4810127;29;20237;-82
2024/02/01 02:02:06;;;;;;;22.00;14.10;;;;;;;;;;4809600;29;20225;-82
2024/02/01 02:05:10;;;;;;;19.10;13.10;;;;;;;;;;4797851;29;20197;-82
2024/02/01 02:08:15;;;;;;;18.57;12.63;;;;;;;;;;4798410;29;20233;-82
2024/02/01 02:11:19;;;;;;;18.73;12.97;;;;;;;;;;4809660;29;20655;-82
2024/02/01 02:14:23;;;;;;;19.80;11.80;;;;;;;;;;4809626;29;20197;-82
2024/02/01 02:17:27;;;;;;;17.27;11.87;;;;;;;;;;4809042;29;20228;-82
2024/02/01 02:20:32;;;;;;;18.50;12.63;;;;;;;;;;4798662;29;20184;-82
2024/02/01 02:23:36;;;;;;;17.63;11.43;;;;;;;;;;4809201;29;20225;-82
2024/02/01 02:26:40;;;;;;;17.40;12.13;;;;;;;;;;4798538;29;20197;-82
2024/02/01 02:29:44;;;;;;;27.03;13.27;;;;;;;;;;4808914;29;20193;-82
2024/02/01 02:32:48;;;;;;;19.43;12.07;;;;;;;;;;4808669;29;20185;-83
2024/02/01 02:35:52;;;;;;;16.83;11.80;;;;;;;;;;4798544;29;20197;-82
2024/02/01 02:38:56;;;;;;;18.07;12.00;;;;;;;;;;4809746;29;20722;-82
2024/02/01 02:42:00;;;;;;;20.73;11.93;;;;;;;;;;4809360;29;20220;-82
2024/02/01 02:45:05;;;;;;;20.33;12.13;;;;;;;;;;4808365;29;20197;-82
2024/02/01 02:48:09;;;;;;;17.13;12.30;;;;;;;;;;4798123;29;20228;-82
2024/02/01 02:51:13;;;;;;;20.00;11.77;;;;;;;;;;4798177;29;20196;-82
2024/02/01 02:54:17;;;;;;;17.40;11.60;;;;;;;;;;4797624;29;20528;-82
2024/02/01 02:57:22;;;;;;;16.13;11.47;;;;;;;;;;4798305;29;20738;-82
2024/02/01 03:00:26;;;;;;;18.17;11.67;;;;;;;;;;4808555;29;20197;-82
2024/02/01 03:03:30;;;;;;;19.17;12.17;;;;;;;;;;4809398;29;20221;-82
2024/02/01 03:06:34;;;;;;;15.13;11.07;;;;;;;;;;4808831;29;20192;-82
2024/02/01 03:09:38;;;;;;;16.97;10.93;;;;;;;;;;4809763;29;20193;-82
2024/02/01 03:12:43;;;;;;;20.23;12.17;;;;;;;;;;4809085;29;20540;-82
2024/02/01 03:15:47;;;;;;;16.70;10.90;;;;;;;;;;4797494;29;20193;-82
2024/02/01 03:18:51;;;;;;;17.83;11.27;;;;;;;;;;4807564;29;20248;-82
2024/02/01 03:21:57;;;;;;;17.73;11.60;;;;;;;;;;4809408;29;20228;-82
2024/02/01 03:25:02;;;;;;;15.40;11.23;;;;;;;;;;4797937;29;20193;-82
2024/02/01 03:28:09;;;;;;;16.23;11.23;;;;;;;;;;4808611;29;20237;-82
2024/02/01 03:31:13;;;;;;;15.37;10.73;;;;;;;;;;4807924;29;20201;-82
2024/02/01 03:34:35;;;;;;;15.90;10.80;;;;;;;;;;4807901;29;20190;-82
2024/02/01 03:37:40;;;;;;;12.83;10.23;;;;;;;;;;4808297;29;20224;-82
2024/02/01 03:40:44;;;;;;;15.47;11.13;;;;;;;;;;4808284;29;20220;-82
2024/02/01 03:43:50;;;;;;;20.30;11.03;;;;;;;;;;4808554;29;20217;-82
2024/02/01 03:46:54;;;;;;;16.87;10.73;;;;;;;;;;4808299;29;20185;-82
2024/02/01 03:49:58;;;;;;;16.93;10.80;;;;;;;;;;4797131;29;20189;-82
2024/02/01 03:53:10;;;;;;;15.33;10.50;;;;;;;;;;4797127;29;20192;-82
2024/02/01 03:56:14;;;;;;;16.00;10.17;;;;;;;;;;4808065;29;20185;-82
2024/02/01 03:59:18;;;;;;;15.87;10.03;;;;;;;;;;4796905;29;20201;-82
2024/02/01 04:02:23;;;;;;;16.90;10.80;;;;;;;;;;4808546;29;20686;-82
2024/02/01 04:05:27;;;;;;;17.53;10.47;;;;;;;;;;4797162;29;20635;-82
2024/02/01 04:08:32;;;;;;;16.20;9.70;;;;;;;;;;4807905;29;20232;-82
2024/02/01 04:11:37;;;;;;;15.43;10.47;;;;;;;;;;4808013;29;20188;-82
2024/02/01 04:14:41;;;;;;;18.43;9.90;;;;;;;;;;4796010;29;20189;-82
2024/02/01 04:17:45;;;;;;;17.70;9.90;;;;;;;;;;4807458;29;20236;-82
2024/02/01 04:20:51;;;;;;;15.00;9.70;;;;;;;;;;4796727;29;20205;-82
2024/02/01 04:23:55;;;;;;;11.40;8.60;;;;;;;;;;4807516;29;20560;-82
2024/02/01 04:26:59;;;;;;;11.77;8.90;;;;;;;;;;4806695;29;20193;-82
2024/02/01 04:30:06;;;;;;;18.07;10.17;;;;;;;;;;4796631;29;20197;-82
2024/02/01 04:33:10;;;;;;;13.00;9.87;;;;;;;;;;4796556;29;20189;-83
2024/02/01 04:36:14;;;;;;;13.13;8.73;;;;;;;;;;4796873;29;20193;-82
2024/02/01 04:39:19;;;;;;;12.50;8.87;;;;;;;;;;4807537;29;20216;-83
2024/02/01 04:42:27;;;;;;;18.17;9.47;;;;;;;;;;4796910;29;20221;-83
2024/02/01 04:45:32;;;;;;;16.93;9.67;;;;;;;;;;4807775;29;20193;-82
2024/02/01 04:48:36;;;;;;;15.53;9.33;;;;;;;;;;4796498;29;20228;-82
2024/02/01 04:51:41;;;;;;;14.13;9.80;;;;;;;;;;4796096;29;20192;-82
2024/02/01 04:54:45;;;;;;;17.90;9.60;;;;;;;;;;4807523;29;20197;-82
2024/02/01 04:57:50;;;;;;;16.50;9.63;;;;;;;;;;4807369;29;20228;-82
2024/02/01 05:00:54;;;;;;;14.83;9.13;;;;;;;;;;4808586;29;20537;-82
2024/02/01 05:03:58;;;;;;;17.17;9.47;;;;;;;;;;4809387;29;20225;-82
2024/02/01 05:07:05;;;;;;;13.33;9.20;;;;;;;;;;4797885;29;20235;-82
2024/02/01 05:10:12;;;;;;;14.57;8.30;;;;;;;;;;4808409;29;20639;-82
2024/02/01 05:13:16;;;;;;;13.30;8.37;;;;;;;;;;4797442;29;20201;-82
2024/02/01 05:16:20;;;;;;;14.67;9.37;;;;;;;;;;4796881;29;20196;-83
2024/02/01 05:19:43;;;;;;;15.53;8.83;;;;;;;;;;4808157;29;20189;-82
2024/02/01 05:22:47;;;;;;;11.90;8.70;;;;;;;;;;4807569;29;20220;-83
2024/02/01 05:25:51;;;;;;;16.27;9.23;;;;;;;;;;4796275;29;20193;-83
2024/02/01 05:28:55;;;;;;;15.57;8.87;;;;;;;;;;4800155;29;20236;-83
2024/02/01 05:32:00;;;;;;;13.37;7.67;;;;;;;;;;4811148;29;20639;-82
2024/02/01 05:35:11;;;;;;;17.00;9.10;;;;;;;;;;4810618;29;20189;-82
2024/02/01 05:38:16;;;;;;;12.83;7.50;;;;;;;;;;4811365;29;20229;-83
2024/02/01 05:41:21;;;;;;;18.63;9.00;;;;;;;;;;4817349;29;20644;-83
2024/02/01 05:44:27;;;;;;;17.33;7.60;;;;;;;;;;4817340;29;20225;-83
2024/02/01 05:47:32;;;;;;;12.87;8.10;;;;;;;;;;4795584;29;20229;-83
2024/02/01 05:50:36;;;;;;;14.43;7.83;;;;;;;;;;4816672;29;20193;-83
2024/02/01 05:53:40;;;;;;;13.50;8.13;;;;;;;;;;4815608;29;20189;-83
2024/02/01 05:56:46;;;;;;;17.60;8.20;;;;;;;;;;4815307;29;20189;-83
2024/02/01 05:59:50;;;;;;;14.03;7.53;;;;;;;;;;4816726;29;20189;-82
2024/02/01 06:02:54;;;;;;;12.40;7.30;;;;;;;;;;4815061;29;20599;-83
2024/02/01 06:05:59;;;;;;;13.83;8.07;;;;;;;;;;4814725;29;20193;-83
2024/02/01 06:09:04;;;;;;;15.03;7.87;;;;;;;;;;4813696;29;20232;-83
2024/02/01 06:12:08;;;;;;;11.27;7.60;;;;;;;;;;4802946;29;20189;-82
2024/02/01 06:15:13;;;;;;;11.00;7.20;;;;;;;;;;4816989;29;20201;-82
2024/02/01 06:18:17;;;;;;;12.70;7.47;;;;;;;;;;4816920;29;20572;-82
2024/02/01 06:21:22;;;;;;;14.43;7.70;;;;;;;;;;4816696;29;20193;-83
2024/02/01 06:24:26;;;;;;;12.20;7.97;;;;;;;;;;4817713;29;20224;-83
2024/02/01 06:27:30;;;;;;;11.37;7.60;;;;;;;;;;4818916;29;20228;-83
2024/02/01 06:30:37;;;;;;;10.00;6.70;;;;;;;;;;4819598;29;20193;-83
2024/02/01 06:33:42;;;;;;;16.90;7.50;;;;;;;;;;4819983;29;20189;-83
2024/02/01 06:36:53;;;;;;;10.93;7.30;;;;;;;;;;4807459;29;20193;-83
2024/02/01 06:40:12;;;;;;;12.30;7.07;;;;;;;;;;4817680;29;20220;-83
2024/02/01 06:43:27;;;;;;;11.43;7.33;;;;;;;;;;4805828;29;20217;-82
2024/02/01 06:47:11;;;;;;;11.83;8.17;;;;;;;;;;4807200;29;20198;-83
2024/02/01 06:53:56;;;;;;;12.67;8.27;;;;;;;;;;4787191;30;20186;-83
2024/02/01 06:57:13;;;;;;;13.07;8.40;;;;;;;;;;4787507;30;20189;-83
2024/02/01 07:03:44;;;;;;;13.30;8.10;;;;;;;;;;4797322;30;20692;-83
2024/02/01 07:07:42;;;;;;;16.50;8.87;;;;;;;;;;4798220;30;20194;-83
2024/02/01 07:10:16;;;;;;;14.37;8.20;;;;;;;;;;4792630;29;20201;-84
2024/02/01 07:16:57;;;;;;;16.23;9.10;;;;;;;;;;4786594;30;20189;-83
2024/02/01 07:20:14;;;;;;;38.33;22.90;;;;;;;;;;4798552;30;20190;-83
2024/02/01 07:26:43;;;;;;;17.17;10.40;;;;;;;;;;4797879;30;20198;-81
2024/02/01 08:00:18;;;;;;;16.43;10.33;;;;;;;;;;4784830;30;20291;-83
2024/02/01 08:09:53;;;;;;;16.10;10.60;;;;;;;;;;4794597;30;20194;-84
2024/02/01 08:13:04;;;;;;;19.27;11.17;;;;;;;;;;4794482;30;20198;-83
2024/02/01 08:16:28;;;;;;;15.63;10.90;;;;;;;;;;4794057;30;20186;-84
2024/02/01 08:19:32;;;;;;;18.13;11.83;;;;;;;;;;4794602;30;20193;-84
2024/02/01 08:22:41;;;;;;;16.90;11.47;;;;;;;;;;4771338;30;20190;-83
2024/02/01 08:25:46;;;;;;;16.73;11.57;;;;;;;;;;4781815;30;20190;-83
2024/02/01 08:28:51;;;;;;;16.20;11.53;;;;;;;;;;4793202;30;20233;-83
2024/02/01 08:31:55;;;;;;;19.93;11.40;;;;;;;;;;4782587;30;20201;-83
2024/02/01 08:34:59;;;;;;;20.23;10.97;;;;;;;;;;4791885;30;20194;-83
2024/02/01 08:38:05;;;;;;;15.27;10.60;;;;;;;;;;4761381;30;20233;-83
2024/02/01 08:41:11;;;;;;;15.53;11.30;;;;;;;;;;4792884;30;20221;-83
2024/02/01 08:44:15;;;;;;;18.83;11.97;;;;;;;;;;4782642;30;20221;-83
2024/02/01 08:47:23;;;;;;;17.80;11.33;;;;;;;;;;4792752;30;20233;-84
2024/02/01 08:50:29;;;;;;;19.57;10.27;;;;;;;;;;4793704;30;20198;-83
2024/02/01 08:53:35;;;;;;;15.30;9.63;;;;;;;;;;4780283;30;20190;-83
2024/02/01 08:56:40;;;;;;;17.57;10.33;;;;;;;;;;4780025;30;20193;-83
2024/02/01 08:59:44;;;;;;;14.97;9.73;;;;;;;;;;4769528;30;20193;-84
2024/02/01 09:03:03;;;;;;;15.87;9.77;;;;;;;;;;4791373;30;20189;-83
2024/02/01 09:06:10;;;;;;;16.60;10.23;;;;;;;;;;4790843;30;20194;-84
2024/02/01 09:09:28;;;;;;;16.03;9.87;;;;;;;;;;4770625;30;20651;-83
2024/02/01 09:12:34;;;;;;;16.90;9.93;;;;;;;;;;4780169;30;20190;-84
2024/02/01 09:15:39;;;;;;;17.97;10.93;;;;;;;;;;4794387;30;20185;-84
2024/02/01 09:18:47;;;;;;;21.53;16.30;;;;;;;;;;4795692;30;20229;-84
2024/02/01 09:21:52;;;;;;;17.37;9.83;;;;;;;;;;4785179;30;20194;-84
2024/02/01 09:24:57;;;;;;;17.80;10.80;;;;;;;;;;4784650;30;20225;-85
2024/02/01 09:28:11;;;;;;;30.07;19.30;;;;;;;;;;4783645;30;20707;-83
2024/02/01 09:31:19;;;;;;;14.43;10.37;;;;;;;;;;4795168;30;20189;-83
2024/02/01 09:34:23;;;;;;;15.90;11.93;;;;;;;;;;4794965;30;20190;-84
2024/02/01 09:37:27;;;;;;;19.27;13.00;;;;;;;;;;4783637;30;20233;-83
2024/02/01 09:40:32;;;;;;;17.83;11.77;;;;;;;;;;4795104;30;20221;-84
2024/02/01 09:43:55;;;;;;;23.57;12.23;;;;;;;;;;4796035;30;20221;-84
2024/02/01 09:47:04;;;;;;;22.10;13.27;;;;;;;;;;4784621;30;20269;-84
2024/02/01 09:50:13;;;;;;;21.03;12.70;;;;;;;;;;4794896;30;20198;-84
2024/02/01 09:53:23;;;;;;;22.03;12.30;;;;;;;;;;4783664;30;20194;-83
2024/02/01 09:56:28;;;;;;;18.17;12.30;;;;;;;;;;4795143;30;20189;-83
2024/02/01 09:59:37;;;;;;;20.70;13.13;;;;;;;;;;4794429;30;20517;-84
2024/02/01 10:02:51;;;;;;;18.53;12.00;;;;;;;;;;4783111;30;20544;-83
2024/02/01 10:05:56;;;;;;;21.27;11.83;;;;;;;;;;4793593;30;20198;-84
2024/02/01 10:09:17;;;;;;;18.37;11.40;;;;;;;;;;4794186;30;20545;-83
2024/02/01 10:12:25;;;;;;;16.60;12.57;;;;;;;;;;4793869;30;20193;-83
2024/02/01 10:15:32;;;;;;;18.07;11.90;;;;;;;;;;4793574;30;20186;-83
2024/02/01 10:18:37;;;;;;;19.77;12.50;;;;;;;;;;4793670;30;20221;-83
2024/02/01 10:21:41;;;;;;;18.13;12.17;;;;;;;;;;4781712;30;20193;-83
2024/02/01 10:24:56;;;;;;;17.77;11.93;;;;;;;;;;4792434;29;20229;-83
2024/02/01 10:28:11;;;;;;;18.53;11.20;;;;;;;;;;4792483;30;20229;-83
2024/02/01 10:31:18;;;;;;;17.43;11.40;;;;;;;;;;4792506;30;20197;-83
2024/02/01 10:34:26;;;;;;;15.93;10.07;;;;;;;;;;4770890;30;20186;-83
2024/02/01 10:37:31;;;;;;;15.53;10.93;;;;;;;;;;4781021;30;20225;-83
2024/02/01 10:40:39;;;;;;;14.70;10.87;;;;;;;;;;4780929;30;20217;-83
2024/02/01 10:43:47;;;;;;;14.90;9.97;;;;;;;;;;4792008;30;20541;-83
2024/02/01 10:46:55;;;;;;;15.03;10.83;;;;;;;;;;4792318;30;20193;-83
2024/02/01 10:50:00;;;;;;;17.87;11.70;;;;;;;;;;4781552;30;20185;-84
2024/02/01 10:53:11;;;;;;;17.20;10.97;;;;;;;;;;4792354;30;20560;-84
2024/02/01 10:56:16;;;;;;;16.60;11.13;;;;;;;;;;4792301;30;20198;-83
2024/02/01 10:59:21;;;;;;;14.10;10.13;;;;;;;;;;4791431;30;20643;-84
2024/02/01 11:02:29;;;;;;;20.87;12.00;;;;;;;;;;4781745;30;20225;-84
2024/02/01 11:05:36;;;;;;;17.93;12.40;;;;;;;;;;4792652;30;20221;-84
2024/02/01 11:08:40;;;;;;;18.70;12.80;;;;;;;;;;4791993;30;20225;-84
2024/02/01 11:11:52;;;;;;;18.17;12.67;;;;;;;;;;4780646;30;20260;-84
2024/02/01 11:14:57;;;;;;;20.50;12.87;;;;;;;;;;4791817;30;20186;-83
2024/02/01 11:18:11;;;;;;;16.57;12.17;;;;;;;;;;4781072;30;20759;-83
2024/02/01 11:21:27;;;;;;;18.57;12.10;;;;;;;;;;4791943;30;20202;-84
2024/02/01 11:25:04;;;;;;;20.27;13.43;;;;;;;;;;4791405;30;20217;-82
2024/02/01 11:28:11;;;;;;;17.20;13.13;;;;;;;;;;4781044;30;20225;-83
2024/02/01 11:31:18;;;;;;;17.13;13.10;;;;;;;;;;4780754;30;20190;-83
2024/02/01 11:34:24;;;;;;;20.60;13.07;;;;;;;;;;4790998;30;20190;-84
2024/02/01 11:37:28;;;;;;;22.50;13.57;;;;;;;;;;4779731;30;20233;-83
2024/02/01 11:40:32;;;;;;;20.73;13.03;;;;;;;;;;4780051;30;20217;-84
2024/02/01 11:43:38;;;;;;;15.33;11.73;;;;;;;;;;4791268;30;20194;-83
2024/02/01 11:46:50;;;;;;;18.37;11.30;;;;;;;;;;4780518;30;20652;-83
2024/02/01 11:49:54;;;;;;;14.90;11.27;;;;;;;;;;4791045;30;20198;-83
2024/02/01 11:53:09;;;;;;;17.53;10.60;;;;;;;;;;4791627;30;20541;-83
2024/02/01 11:56:13;;;;;;;15.97;11.27;;;;;;;;;;4791360;30;20190;-83
2024/02/01 11:59:17;;;;;;;15.97;12.50;;;;;;;;;;4791144;30;20190;-84
2024/02/01 12:02:25;;;;;;;17.43;10.73;;;;;;;;;;4769696;30;20544;-83
2024/02/01 12:05:32;;;;;;;15.63;11.20;;;;;;;;;;4791133;30;20584;-83
2024/02/01 12:08:36;;;;;;;15.93;10.37;;;;;;;;;;4779959;30;20711;-83
2024/02/01 12:11:43;;;;;;;14.17;10.07;;;;;;;;;;4791109;30;20193;-83
2024/02/01 12:14:47;;;;;;;13.97;9.40;;;;;;;;;;4789296;30;20190;-83
2024/02/01 12:17:56;;;;;;;17.50;10.80;;;;;;;;;;4790407;30;20233;-84
2024/02/01 12:21:00;;;;;;;15.63;9.57;;;;;;;;;;4779971;30;20197;-83
2024/02/01 12:24:04;;;;;;;15.77;10.30;;;;;;;;;;4790322;30;20185;-83
2024/02/01 12:27:11;;;;;;;12.60;8.37;;;;;;;;;;4779633;30;20229;-83
2024/02/01 12:30:15;;;;;;;12.63;7.23;;;;;;;;;;4779330;30;20534;-84
2024/02/01 12:33:39;;;;;;;13.20;7.07;;;;;;;;;;4789895;30;20190;-83
2024/02/01 12:36:48;;;;;;;13.50;9.03;;;;;;;;;;4779012;30;20185;-83
2024/02/01 12:39:53;;;;;;;14.10;9.43;;;;;;;;;;4768572;30;20577;-83
2024/02/01 12:43:01;;;;;;;12.07;9.23;;;;;;;;;;4789088;30;20205;-83
2024/02/01 12:46:09;;;;;;;11.43;8.27;;;;;;;;;;4789353;30;20222;-83
2024/02/01 12:49:14;;;;;;;16.03;12.90;;;;;;;;;;4792712;29;20541;-83
2024/02/01 12:52:18;;;;;;;12.63;8.80;;;;;;;;;;4783441;30;20189;-83
2024/02/01 12:55:23;;;;;;;14.60;9.40;;;;;;;;;;4772915;30;20185;-83
2024/02/01 12:58:27;;;;;;;13.23;9.03;;;;;;;;;;4783937;30;20233;-83
2024/02/01 13:01:33;;;;;;;9.40;6.73;;;;;;;;;;4784505;30;20189;-83
2024/02/01 13:04:39;;;;;;;9.47;6.87;;;;;;;;;;4794756;30;20644;-84
2024/02/01 13:07:43;;;;;;;11.13;6.47;;;;;;;;;;4795014;30;20231;-83
2024/02/01 13:10:49;;;;;;;11.30;7.43;;;;;;;;;;4784379;30;20193;-82
2024/02/01 13:13:55;;;;;;;10.00;6.77;;;;;;;;;;4783961;30;20194;-83
2024/02/01 13:17:00;;;;;;;8.80;6.50;;;;;;;;;;4796072;30;20189;-82
2024/02/01 13:20:19;;;;;;;12.17;7.10;;;;;;;;;;4796278;30;20190;-83
2024/02/01 13:23:23;;;;;;;7.80;6.27;;;;;;;;;;4783931;30;20190;-83
2024/02/01 13:26:28;;;;;;;11.63;7.13;;;;;;;;;;4784345;30;20222;-88
2024/02/01 13:29:32;;;;;;;11.23;6.70;;;;;;;;;;4784351;30;20198;-84
2024/02/01 13:32:36;;;;;;;7.83;5.70;;;;;;;;;;4795448;30;20541;-84
2024/02/01 13:35:41;;;;;;;10.40;6.50;;;;;;;;;;4784274;30;20186;-83
2024/02/01 13:39:05;;;;;;;13.27;7.00;;;;;;;;;;4794929;30;20712;-84
2024/02/01 13:42:10;;;;;;;9.67;7.50;;;;;;;;;;4794013;30;20190;-84
2024/02/01 13:45:16;;;;;;;16.93;11.70;;;;;;;;;;4783176;30;20226;-84
2024/02/01 13:48:22;;;;;;;13.57;9.70;;;;;;;;;;4782730;30;20228;-83
2024/02/01 13:51:26;;;;;;;25.23;14.67;;;;;;;;;;4793380;30;20190;-84
2024/02/01 13:54:30;;;;;;;10.17;8.27;;;;;;;;;;4793199;30;20190;-83
2024/02/01 13:57:34;;;;;;;9.90;6.80;;;;;;;;;;4793374;30;20229;-83
2024/02/01 14:00:38;;;;;;;11.50;8.07;;;;;;;;;;4792395;29;20193;-83
2024/02/01 14:03:42;;;;;;;11.67;9.40;;;;;;;;;;4781986;30;20198;-84
2024/02/01 14:06:46;;;;;;;12.63;7.93;;;;;;;;;;4792408;30;20229;-84
2024/02/01 14:09:51;;;;;;;14.70;12.27;;;;;;;;;;4792822;30;20193;-83
2024/02/01 14:13:01;;;;;;;13.57;10.30;;;;;;;;;;4796141;30;20194;-84
2024/02/01 14:16:08;;;;;;;12.87;9.73;;;;;;;;;;4786250;30;20190;-84
2024/02/01 14:19:13;;;;;;;15.73;11.77;;;;;;;;;;4783570;30;20190;-85
2024/02/01 14:22:20;;;;;;;13.27;10.20;;;;;;;;;;4793459;30;20533;-84
2024/02/01 14:25:25;;;;;;;11.23;7.60;;;;;;;;;;4782634;30;20221;-84
2024/02/01 14:28:29;;;;;;;11.20;8.03;;;;;;;;;;4786111;30;20233;-85
2024/02/01 14:31:34;;;;;;;10.10;8.53;;;;;;;;;;4783100;30;20198;-84
2024/02/01 14:34:38;;;;;;;12.40;8.50;;;;;;;;;;4782731;30;20198;-85
2024/02/01 14:37:43;;;;;;;9.50;6.90;;;;;;;;;;4771771;30;20233;-85
2024/02/01 14:40:47;;;;;;;11.33;6.40;;;;;;;;;;4747617;30;1074889;-85
2024/02/01 14:43:51;;;;;;;13.07;7.03;;;;;;;;;;4772301;30;20196;-85
2024/02/01 14:46:56;;;;;;;9.30;6.93;;;;;;;;;;4792941;30;20230;-83
2024/02/01 14:50:00;;;;;;;9.03;6.27;;;;;;;;;;4782549;30;20194;-83
2024/02/01 14:53:04;;;;;;;8.47;6.23;;;;;;;;;;4781511;30;20198;-83
2024/02/01 14:56:08;;;;;;;8.30;6.07;;;;;;;;;;4792523;30;20186;-83
2024/02/01 14:59:12;;;;;;;8.00;6.23;;;;;;;;;;4792665;30;20202;-83
2024/02/01 15:02:16;;;;;;;11.33;7.87;;;;;;;;;;4782558;30;20189;-83
2024/02/01 15:05:20;;;;;;;10.50;7.27;;;;;;;;;;4781853;30;20193;-83
2024/02/01 15:08:26;;;;;;;24.63;15.47;;;;;;;;;;4781811;30;20225;-84
2024/02/01 15:11:31;;;;;;;32.30;21.90;;;;;;;;;;4791359;29;20202;-84
2024/02/01 15:14:36;;;;;;;11.93;8.80;;;;;;;;;;4781698;30;20198;-84
2024/02/01 15:17:41;;;;;;;9.27;5.50;;;;;;;;;;4793327;30;20225;-85
2024/02/01 15:20:49;;;;;;;7.77;5.93;;;;;;;;;;4781096;30;20189;-84
2024/02/01 15:23:53;;;;;;;10.70;6.73;;;;;;;;;;4791511;30;20190;-84
2024/02/01 15:27:00;;;;;;;9.03;7.97;;;;;;;;;;4791650;30;20225;-84
2024/02/01 15:30:09;;;;;;;10.30;8.77;;;;;;;;;;4792177;30;20198;-84
2024/02/01 15:33:20;;;;;;;9.50;7.53;;;;;;;;;;4792577;30;20198;-84
2024/02/01 15:36:24;;;;;;;7.17;6.30;;;;;;;;;;4781002;30;20190;-83
2024/02/01 15:39:32;;;;;;;6.70;5.43;;;;;;;;;;4780778;30;20221;-84
2024/02/01 15:42:38;;;;;;;7.60;5.37;;;;;;;;;;4771008;30;20654;-84
2024/02/01 15:45:42;;;;;;;9.10;6.67;;;;;;;;;;4780741;30;20225;-83
2024/02/01 15:48:50;;;;;;;5.27;4.77;;;;;;;;;;4780202;30;20719;-84
2024/02/01 15:51:55;;;;;;;6.43;4.90;;;;;;;;;;4791405;30;20197;-84
2024/02/01 15:54:59;;;;;;;4.90;3.70;;;;;;;;;;4780543;30;20549;-85
2024/02/01 15:58:03;;;;;;;5.67;4.50;;;;;;;;;;4780404;30;20229;-84
2024/02/01 16:01:07;;;;;;;6.00;4.33;;;;;;;;;;4780563;30;20190;-84
2024/02/01 16:04:12;;;;;;;5.07;3.97;;;;;;;;;;4791252;30;20193;-84
2024/02/01 16:07:16;;;;;;;4.50;4.10;;;;;;;;;;4780012;30;20244;-84
2024/02/01 16:10:20;;;;;;;4.87;4.37;;;;;;;;;;4791373;30;20537;-84
2024/02/01 16:13:35;;;;;;;6.50;5.90;;;;;;;;;;4770030;30;20556;-84
2024/02/01 16:16:41;;;;;;;5.53;4.73;;;;;;;;;;4780607;30;20534;-85
2024/02/01 16:19:46;;;;;;;5.47;4.97;;;;;;;;;;4791138;30;20198;-84
2024/02/01 16:22:50;;;;;;;6.87;5.00;;;;;;;;;;4769767;29;20198;-84
2024/02/01 16:25:55;;;;;;;4.43;4.03;;;;;;;;;;4791578;30;20587;-84
2024/02/01 16:28:59;;;;;;;4.40;4.00;;;;;;;;;;4779761;30;20233;-84
2024/02/01 16:32:29;;;;;;;4.83;3.50;;;;;;;;;;4791317;30;20560;-84
2024/02/01 16:35:40;;;;;;;4.37;3.70;;;;;;;;;;4780008;30;20663;-84
2024/02/01 16:38:44;;;;;;;4.10;3.60;;;;;;;;;;4779794;30;20225;-84
2024/02/01 16:41:54;;;;;;;5.00;3.83;;;;;;;;;;4791010;30;20190;-83
2024/02/01 16:45:00;;;;;;;6.43;5.20;;;;;;;;;;4791362;30;20194;-85
2024/02/01 16:48:12;;;;;;;5.87;4.47;;;;;;;;;;4769963;30;20219;-84
2024/02/01 16:51:21;;;;;;;5.07;4.40;;;;;;;;;;4779160;30;20194;-84
2024/02/01 16:54:26;;;;;;;4.67;4.17;;;;;;;;;;4779443;30;20198;-84
2024/02/01 16:57:29;;;;;;;8.03;5.70;;;;;;;;;;4779375;30;20225;-84
2024/02/01 17:00:35;;;;;;;6.57;5.50;;;;;;;;;;4791039;30;20193;-85
2024/02/01 17:03:40;;;;;;;8.77;5.93;;;;;;;;;;4790690;30;20656;-84
2024/02/01 17:06:45;;;;;;;19.70;8.87;;;;;;;;;;4779715;30;20217;-84
2024/02/01 17:09:53;;;;;;;9.07;6.80;;;;;;;;;;4790892;30;20198;-84
2024/02/01 17:12:57;;;;;;;9.20;7.60;;;;;;;;;;4769356;30;20202;-84
2024/02/01 17:16:02;;;;;;;7.77;7.03;;;;;;;;;;4789215;30;20644;-83
2024/02/01 17:19:06;;;;;;;8.30;6.50;;;;;;;;;;4778601;30;20233;-84
2024/02/01 17:22:15;;;;;;;7.33;6.43;;;;;;;;;;4790352;30;20539;-84
2024/02/01 17:26:04;;;;;;;7.07;6.33;;;;;;;;;;4778691;30;20652;-84
2024/02/01 17:29:10;;;;;;;8.17;6.83;;;;;;;;;;4778581;30;20230;-83
2024/02/01 17:32:14;;;;;;;8.60;6.73;;;;;;;;;;4769171;30;20559;-84
2024/02/01 17:35:19;;;;;;;7.33;6.10;;;;;;;;;;4780039;30;20198;-84
2024/02/01 17:38:23;;;;;;;10.77;6.10;;;;;;;;;;4794193;30;20221;-84
2024/02/01 17:41:32;;;;;;;8.07;5.97;;;;;;;;;;4792202;30;20181;-84
2024/02/01 17:44:36;;;;;;;9.07;7.70;;;;;;;;;;4782068;30;20186;-84
2024/02/01 17:47:41;;;;;;;11.83;7.97;;;;;;;;;;4771625;30;20611;-84
2024/02/01 17:50:45;;;;;;;11.10;7.07;;;;;;;;;;4782775;30;20537;-85
2024/02/01 17:53:54;;;;;;;8.30;6.83;;;;;;;;;;4762134;30;20197;-84
2024/02/01 17:56:59;;;;;;;9.63;7.93;;;;;;;;;;4793722;30;20641;-85
2024/02/01 18:00:13;;;;;;;8.00;6.60;;;;;;;;;;4793475;30;20202;-84
2024/02/01 18:03:17;;;;;;;9.00;6.70;;;;;;;;;;4792497;30;20193;-84
2024/02/01 18:06:43;;;;;;;11.83;9.73;;;;;;;;;;4792273;30;20217;-83
2024/02/01 18:09:48;;;;;;;10.70;9.07;;;;;;;;;;4781677;30;20194;-83
2024/02/01 18:12:55;;;;;;;11.53;10.17;;;;;;;;;;4792279;30;20198;-83
2024/02/01 18:16:10;;;;;;;16.50;10.73;;;;;;;;;;4793101;30;20194;-83
2024/02/01 18:19:22;;;;;;;13.77;10.93;;;;;;;;;;4771452;30;20190;-83
2024/02/01 18:22:26;;;;;;;13.87;10.33;;;;;;;;;;4792749;30;20186;-83
2024/02/01 18:25:30;;;;;;;12.27;9.67;;;;;;;;;;4781825;30;20636;-83
2024/02/01 18:28:40;;;;;;;11.27;8.40;;;;;;;;;;4792987;30;20229;-83
2024/02/01 18:31:44;;;;;;;14.47;10.67;;;;;;;;;;4792464;30;20190;-83
2024/02/01 18:34:49;;;;;;;15.73;11.70;;;;;;;;;;4791956;30;20201;-83
2024/02/01 18:37:54;;;;;;;19.23;14.20;;;;;;;;;;4770339;30;20560;-83
2024/02/01 18:40:58;;;;;;;15.83;11.43;;;;;;;;;;4780559;30;20707;-83
2024/02/01 18:44:20;;;;;;;12.93;10.17;;;;;;;;;;4791809;30;20194;-83
2024/02/01 18:47:30;;;;;;;24.53;17.53;;;;;;;;;;4792190;29;20241;-83
2024/02/01 18:50:38;;;;;;;17.23;14.70;;;;;;;;;;4780614;30;20186;-83
2024/02/01 18:53:55;;;;;;;12.20;10.67;;;;;;;;;;4780602;30;20198;-83
2024/02/01 18:57:01;;;;;;;12.80;9.93;;;;;;;;;;4791068;30;20194;-83
2024/02/01 19:00:09;;;;;;;12.90;9.97;;;;;;;;;;4769523;30;20197;-83
2024/02/01 19:03:41;;;;;;;14.43;11.43;;;;;;;;;;4779654;30;20193;-83
2024/02/01 19:06:50;;;;;;;12.87;10.83;;;;;;;;;;4790787;30;20239;-83
2024/02/01 19:09:54;;;;;;;14.10;11.87;;;;;;;;;;4780035;30;20198;-83